createdAt,value
2018-04-01T00:08:14.274Z,5.90
2018-04-01T00:13:16.320Z,5.90
2018-04-01T00:18:18.367Z,5.80
2018-04-01T00:23:20.418Z,5.80
2018-04-01T00:28:22.466Z,5.80
2018-04-01T00:33:24.497Z,5.80
2018-04-01T00:38:26.547Z,5.80
2018-04-01T00:43:28.609Z,5.80
2018-04-01T00:48:30.658Z,5.80
2018-04-01T00:53:32.693Z,5.70
2018-04-01T00:58:34.741Z,5.80
2018-04-01T01:03:37.574Z,5.80
2018-04-01T01:08:39.620Z,5.80
2018-04-01T01:13:41.642Z,5.80
2018-04-01T01:18:43.679Z,5.80
2018-04-01T01:23:45.730Z,5.80
2018-04-01T01:28:47.770Z,5.80
2018-04-01T01:33:49.810Z,5.80
2018-04-01T01:38:51.880Z,5.80
2018-04-01T01:43:53.928Z,5.80
2018-04-01T01:48:55.975Z,5.90
2018-04-01T01:53:58.031Z,5.90
2018-04-01T01:59:00.082Z,5.90
2018-04-01T02:04:02.129Z,5.90
2018-04-01T02:09:04.199Z,5.90
2018-04-01T02:14:07.029Z,5.90
2018-04-01T02:19:09.069Z,5.90
2018-04-01T02:24:11.130Z,5.90
2018-04-01T02:29:13.167Z,5.90
2018-04-01T02:34:15.227Z,5.90
2018-04-01T02:39:18.298Z,5.90
2018-04-01T02:44:20.330Z,5.90
2018-04-01T02:49:23.134Z,5.90
2018-04-01T02:54:25.476Z,5.80
2018-04-01T02:59:27.791Z,5.90
2018-04-01T03:04:31.478Z,5.90
2018-04-01T03:09:33.917Z,5.80
2018-04-01T03:14:36.495Z,5.90
2018-04-01T03:19:40.103Z,5.80
2018-04-01T03:24:44.405Z,5.80
2018-04-01T03:29:46.660Z,5.90
2018-04-01T03:34:50.041Z,5.80
2018-04-01T03:39:52.098Z,5.80
2018-04-01T03:44:54.904Z,5.80
2018-04-01T03:49:56.945Z,5.80
2018-04-01T03:54:58.985Z,5.80
2018-04-01T04:00:01.034Z,5.80
2018-04-01T04:05:03.090Z,5.80
2018-04-01T04:10:05.150Z,5.80
2018-04-01T04:15:07.190Z,5.80
2018-04-01T04:20:09.250Z,5.80
2018-04-01T04:25:11.313Z,5.80
2018-04-01T04:30:13.394Z,5.80
2018-04-01T04:35:15.461Z,5.70
2018-04-01T04:40:17.518Z,5.70
2018-04-01T04:45:19.578Z,5.70
2018-04-01T04:50:21.622Z,5.70
2018-04-01T04:55:23.661Z,5.70
2018-04-01T05:00:26.040Z,5.70
2018-04-01T05:05:28.489Z,5.70
2018-04-01T05:10:31.659Z,5.60
2018-04-01T05:15:35.291Z,5.60
2018-04-01T05:20:37.586Z,5.60
2018-04-01T05:25:40.723Z,5.60
2018-04-01T05:30:43.146Z,5.60
2018-04-01T05:35:45.985Z,5.60
2018-04-01T05:40:48.023Z,5.60
2018-04-01T05:45:50.078Z,5.60
2018-04-01T05:50:52.122Z,5.60
2018-04-01T05:55:54.166Z,5.60
2018-04-01T06:00:56.225Z,5.60
2018-04-01T06:05:58.278Z,5.70
2018-04-01T06:11:00.327Z,5.70
2018-04-01T06:16:02.368Z,5.70
2018-04-01T06:21:04.418Z,5.70
2018-04-01T06:26:06.633Z,5.70
2018-04-01T06:31:09.573Z,5.70
2018-04-01T06:36:11.829Z,5.80
2018-04-01T06:41:14.819Z,5.90
2018-04-01T06:46:16.954Z,5.90
2018-04-01T06:51:19.000Z,5.90
2018-04-01T06:56:21.058Z,6.00
2018-04-01T07:01:23.109Z,6.00
2018-04-01T07:06:25.161Z,6.10
2018-04-01T07:11:27.253Z,6.10
2018-04-01T07:16:29.493Z,6.20
2018-04-01T07:21:31.588Z,6.20
2018-04-01T07:26:33.637Z,6.30
2018-04-01T07:31:36.448Z,6.30
2018-04-01T07:36:39.269Z,6.30
2018-04-01T07:41:41.310Z,6.30
2018-04-01T07:46:43.354Z,6.40
2018-04-01T07:51:45.403Z,6.40
2018-04-01T07:56:48.205Z,6.50
2018-04-01T08:01:50.265Z,6.50
2018-04-01T08:06:54.973Z,6.60
2018-04-01T08:11:58.065Z,6.60
2018-04-01T08:17:00.381Z,6.70
2018-04-01T08:22:02.486Z,6.70
2018-04-01T08:27:04.546Z,6.80
2018-04-01T08:32:06.590Z,6.80
2018-04-01T08:37:08.643Z,6.90
2018-04-01T08:42:10.677Z,7.00
2018-04-01T08:47:12.718Z,7.10
2018-04-01T08:52:14.777Z,7.20
2018-04-01T08:57:17.582Z,7.50
2018-04-01T09:02:19.635Z,7.50
2018-04-01T09:07:21.681Z,7.60
2018-04-01T09:12:23.710Z,7.80
2018-04-01T09:17:27.872Z,7.90
2018-04-01T09:22:32.845Z,8.10
2018-04-01T09:27:34.969Z,8.20
2018-04-01T09:32:36.993Z,8.30
2018-04-01T09:37:39.065Z,8.30
2018-04-01T09:42:41.130Z,8.40
2018-04-01T09:47:43.165Z,8.50
2018-04-01T09:52:45.633Z,8.50
2018-04-01T09:57:48.224Z,8.60
2018-04-01T10:02:52.322Z,8.70
2018-04-01T10:07:56.349Z,8.80
2018-04-01T10:13:00.624Z,9.00
2018-04-01T10:18:03.562Z,9.20
2018-04-01T10:23:06.431Z,9.40
2018-04-01T10:28:09.316Z,9.70
2018-04-01T10:33:12.599Z,9.90
2018-04-01T10:38:15.449Z,10.20
2018-04-01T10:43:21.355Z,10.40
2018-04-01T10:48:24.454Z,10.50
2018-04-01T10:53:27.463Z,10.70
2018-04-01T10:58:30.390Z,10.70
2018-04-01T11:03:32.940Z,10.70
2018-04-01T11:08:35.540Z,10.70
2018-04-01T11:13:38.096Z,10.70
2018-04-01T11:18:41.222Z,10.50
2018-04-01T11:23:43.687Z,10.50
2018-04-01T11:28:45.746Z,10.40
2018-04-01T11:33:47.810Z,10.20
2018-04-01T11:38:49.871Z,10.10
2018-04-01T11:43:52.688Z,10.20
2018-04-01T11:48:54.730Z,10.20
2018-04-01T11:53:56.789Z,10.40
2018-04-01T11:58:58.838Z,10.40
2018-04-01T12:04:00.898Z,10.40
2018-04-01T12:09:03.000Z,10.60
2018-04-01T12:14:05.006Z,10.90
2018-04-01T12:19:07.049Z,11.10
2018-04-01T12:24:09.120Z,11.40
2018-04-01T12:29:11.178Z,11.60
2018-04-01T12:34:13.259Z,11.60
2018-04-01T12:39:15.303Z,11.60
2018-04-01T12:44:17.350Z,11.60
2018-04-01T12:49:19.395Z,11.60
2018-04-01T12:54:21.445Z,11.70
2018-04-01T12:59:23.514Z,11.80
2018-04-01T13:04:25.545Z,11.90
2018-04-01T13:09:27.594Z,12.10
2018-04-01T13:14:29.637Z,12.20
2018-04-01T13:19:31.685Z,12.30
2018-04-01T13:24:33.750Z,12.40
2018-04-01T13:29:35.822Z,12.50
2018-04-01T13:34:37.870Z,12.60
2018-04-01T13:39:39.917Z,12.70
2018-04-01T13:44:41.967Z,12.60
2018-04-01T13:49:44.792Z,12.50
2018-04-01T13:54:47.622Z,12.40
2018-04-01T13:59:49.686Z,12.40
2018-04-01T14:04:51.753Z,12.20
2018-04-01T14:09:54.560Z,11.70
2018-04-01T14:14:57.391Z,11.60
2018-04-01T14:19:59.442Z,11.50
2018-04-01T14:25:02.270Z,11.30
2018-04-01T14:30:04.579Z,11.30
2018-04-01T14:35:06.625Z,11.20
2018-04-01T14:40:08.673Z,11.10
2018-04-01T14:45:10.734Z,11.00
2018-04-01T14:50:12.818Z,11.00
2018-04-01T14:55:15.621Z,11.00
2018-04-01T15:00:17.671Z,11.00
2018-04-01T15:05:19.723Z,11.00
2018-04-01T15:10:21.777Z,10.90
2018-04-01T15:15:23.821Z,10.90
2018-04-01T15:20:25.892Z,10.80
2018-04-01T15:25:27.956Z,10.70
2018-04-01T15:30:35.421Z,10.70
2018-04-01T15:40:51.512Z,10.40
2018-04-01T15:45:57.552Z,10.10
2018-04-01T15:51:01.594Z,9.90
2018-04-01T15:56:04.290Z,9.70
2018-04-01T16:01:07.365Z,9.50
2018-04-01T16:06:13.676Z,9.30
2018-04-01T16:11:24.849Z,9.20
2018-04-01T16:16:27.872Z,9.00
2018-04-01T16:21:36.193Z,8.90
2018-04-01T16:26:38.948Z,8.70
2018-04-01T16:31:43.169Z,8.60
2018-04-01T16:36:47.724Z,8.50
2018-04-01T16:41:51.925Z,8.50
2018-04-01T16:46:54.666Z,8.40
2018-04-01T16:51:57.652Z,8.30
2018-04-01T16:57:02.864Z,8.30
2018-04-01T17:02:08.263Z,8.20
2018-04-01T17:07:12.123Z,8.10
2018-04-01T17:12:17.853Z,7.90
2018-04-01T17:17:20.851Z,7.90
2018-04-01T17:22:26.525Z,7.90
2018-04-01T17:27:32.479Z,7.80
2018-04-01T17:32:36.875Z,7.70
2018-04-01T17:37:40.830Z,7.60
2018-04-01T17:42:45.321Z,7.50
2018-04-01T17:47:47.764Z,7.40
2018-04-01T17:52:50.725Z,7.40
2018-04-01T17:57:53.000Z,7.30
2018-04-01T18:02:56.557Z,7.20
2018-04-01T18:07:59.433Z,7.10
2018-04-01T18:13:01.765Z,7.10
2018-04-01T18:18:04.264Z,7.00
2018-04-01T18:23:06.921Z,6.90
2018-04-01T18:28:09.185Z,6.80
2018-04-01T18:33:11.630Z,6.80
2018-04-01T18:38:13.865Z,6.70
2018-04-01T18:43:16.544Z,6.60
2018-04-01T18:48:19.040Z,6.60
2018-04-01T18:53:21.315Z,6.50
2018-04-01T18:58:23.581Z,6.50
2018-04-01T19:03:25.755Z,6.40
2018-04-01T19:08:27.978Z,6.40
2018-04-01T19:13:30.337Z,6.30
2018-04-01T19:18:34.946Z,6.30
2018-04-01T19:23:38.088Z,6.20
2018-04-01T19:28:41.818Z,6.20
2018-04-01T19:33:44.693Z,6.10
2018-04-01T19:38:47.700Z,6.10
2018-04-01T19:43:50.754Z,6.10
2018-04-01T19:48:54.502Z,5.90
2018-04-01T19:53:58.338Z,5.90
2018-04-01T19:59:02.114Z,5.90
2018-04-01T20:04:05.638Z,5.90
2018-04-01T20:09:08.760Z,5.90
2018-04-01T20:14:12.828Z,5.80
2018-04-01T20:19:16.683Z,5.80
2018-04-01T20:24:19.481Z,5.70
2018-04-01T20:29:22.549Z,5.70
2018-04-01T20:34:26.656Z,5.70
2018-04-01T20:39:29.892Z,5.60
2018-04-01T20:44:32.840Z,5.60
2018-04-01T20:49:35.914Z,5.60
2018-04-01T20:54:40.849Z,5.50
2018-04-01T20:59:43.808Z,5.50
2018-04-01T21:04:46.568Z,5.50
2018-04-01T21:09:50.306Z,5.50
2018-04-01T21:14:54.767Z,5.50
2018-04-01T21:19:57.684Z,5.50
2018-04-01T21:25:01.027Z,5.50
2018-04-01T21:30:04.088Z,5.50
2018-04-01T21:35:09.229Z,5.40
2018-04-01T21:40:12.226Z,5.40
2018-04-01T21:50:25.030Z,5.40
2018-04-01T21:55:28.724Z,5.40
2018-04-01T22:00:32.614Z,5.40
2018-04-01T22:05:35.774Z,5.40
2018-04-01T22:10:39.380Z,5.40
2018-04-01T22:15:43.136Z,5.40
2018-04-01T22:20:46.100Z,5.40
2018-04-01T22:25:49.804Z,5.40
2018-04-01T22:30:53.326Z,5.40
2018-04-01T22:35:57.362Z,5.40
2018-04-01T22:41:00.490Z,5.40
2018-04-01T22:46:05.095Z,5.40
2018-04-01T22:51:08.187Z,5.40
2018-04-01T22:56:12.112Z,5.40
2018-04-01T23:01:15.418Z,5.40
2018-04-01T23:06:19.783Z,5.40
2018-04-01T23:11:23.151Z,5.40
2018-04-01T23:16:26.254Z,5.40
2018-04-01T23:21:29.331Z,5.40
2018-04-01T23:26:32.814Z,5.40
2018-04-01T23:31:36.416Z,5.40
2018-04-01T23:36:41.179Z,5.40
2018-04-01T23:41:44.089Z,5.40
2018-04-01T23:46:47.048Z,5.40
2018-04-01T23:51:50.140Z,5.40
2018-04-01T23:56:53.920Z,5.40
